Planalto, Brazil
Current Conditions -  °F | °C
As of 12:00 PM on Saturday 01 Nov 2014 (Local Time) from SARI Reporting Station
Broken Clouds Broken Clouds  
Wind Chill: 77°   Ceiling: 10000
Heat Index: 78°   Visibility: 6mi
Dew Point: 73°   Wind: 5mph
Humidity: 89%   Direction: 50°NE
Pressure: 30"   Gusts: NA
Location:  25.72°S, 53.77°W
Report Text: SARI 011400Z 05004KT 9999 FEW045CB BKN10025/23 Q1016 RETS
Loading
Personal Weather Stations






























Interactive Weather Map
Tropical Storm Tracking
New forecast layout! Learn more

10-Day Weather Forecast

Advertisements
Track Severe Weather on mobile